Terminal Aerodrome Forecast
Issued by NWS Jackson, MS

Home | Current Version | Previous Version | Text Only | Print | Product List | Glossary On
Versions: 1 2 3 4 5 6 7 8 9 10 11 12 13 14 15 16 17 18
000
FTUS44 KJAN 281700
TAFHBG
TAF
KHBG 281728Z 2818/0118 12010KT P6SM SKC
     FM010400 09003KT P6SM OVC015
     FM010600 11004KT 5SM BR OVC008
     FM011100 10003KT 1SM BR OVC003
     FM011500 12004KT 4SM BR OVC008=

USA.gov is the U.S. government's official web portal to all federal, state and local government web resources and services.